sensor_id;sensor_type;location;lat;lon;timestamp;pressure;altitude;pressure_sealevel;temperature;humidity
36190;BME280;22232;50.914;13.858;2023-04-09T00:02:14;98696.63;;;1.75;100.00
36190;BME280;22232;50.914;13.858;2023-04-09T00:04:42;98697.53;;;1.66;100.00
36190;BME280;22232;50.914;13.858;2023-04-09T00:07:10;98704.22;;;1.60;100.00
36190;BME280;22232;50.914;13.858;2023-04-09T00:09:37;98701.75;;;1.58;100.00
36190;BME280;22232;50.914;13.858;2023-04-09T00:12:05;98703.53;;;1.58;100.00
36190;BME280;22232;50.914;13.858;2023-04-09T00:14:32;98704.38;;;1.58;100.00
36190;BME280;22232;50.914;13.858;2023-04-09T00:17:00;98698.13;;;1.59;100.00
36190;BME280;22232;50.914;13.858;2023-04-09T00:19:27;98693.31;;;1.55;100.00
36190;BME280;22232;50.914;13.858;2023-04-09T00:21:55;98687.09;;;1.56;100.00
36190;BME280;22232;50.914;13.858;2023-04-09T00:24:23;98690.03;;;1.53;100.00
36190;BME280;22232;50.914;13.858;2023-04-09T00:26:50;98689.06;;;1.54;100.00
36190;BME280;22232;50.914;13.858;2023-04-09T00:29:19;98681.03;;;1.55;100.00
36190;BME280;22232;50.914;13.858;2023-04-09T00:31:47;98681.03;;;1.55;100.00
36190;BME280;22232;50.914;13.858;2023-04-09T00:34:15;98681.97;;;1.54;100.00
36190;BME280;22232;50.914;13.858;2023-04-09T00:36:42;98683.66;;;1.55;100.00
36190;BME280;22232;50.914;13.858;2023-04-09T00:39:10;98700.69;;;1.51;100.00
36190;BME280;22232;50.914;13.858;2023-04-09T00:41:37;98699.34;;;1.47;100.00
36190;BME280;22232;50.914;13.858;2023-04-09T00:44:05;98701.38;;;1.53;100.00
36190;BME280;22232;50.914;13.858;2023-04-09T00:46:33;98700.78;;;1.59;100.00
36190;BME280;22232;50.914;13.858;2023-04-09T00:49:00;98699.34;;;1.65;100.00
36190;BME280;22232;50.914;13.858;2023-04-09T00:51:27;98701.81;;;1.67;100.00
36190;BME280;22232;50.914;13.858;2023-04-09T00:53:55;98700.91;;;1.76;100.00
36190;BME280;22232;50.914;13.858;2023-04-09T00:56:23;98708.47;;;1.79;100.00
36190;BME280;22232;50.914;13.858;2023-04-09T00:58:52;98706.66;;;1.79;100.00
36190;BME280;22232;50.914;13.858;2023-04-09T01:01:20;98704.28;;;1.86;100.00
36190;BME280;22232;50.914;13.858;2023-04-09T01:03:48;98701.66;;;1.86;100.00
36190;BME280;22232;50.914;13.858;2023-04-09T01:07:19;98699.38;;;1.91;100.00
36190;BME280;22232;50.914;13.858;2023-04-09T01:09:28;98697.09;;;1.96;100.00
36190;BME280;22232;50.914;13.858;2023-04-09T01:12:17;98697.09;;;1.96;100.00
36190;BME280;22232;50.914;13.858;2023-04-09T01:14:58;98697.41;;;1.93;100.00
36190;BME280;22232;50.914;13.858;2023-04-09T01:20:12;98684.41;;;1.92;100.00
36190;BME280;22232;50.914;13.858;2023-04-09T01:28:36;98695.84;;;1.82;100.00
36190;BME280;22232;50.914;13.858;2023-04-09T01:31:14;98694.38;;;1.80;100.00
36190;BME280;22232;50.914;13.858;2023-04-09T01:33:42;98696.16;;;1.79;100.00
36190;BME280;22232;50.914;13.858;2023-04-09T01:36:10;98702.91;;;1.82;100.00
36190;BME280;22232;50.914;13.858;2023-04-09T01:38:41;98701.09;;;1.82;100.00
36190;BME280;22232;50.914;13.858;2023-04-09T01:41:13;98701.94;;;1.83;100.00
36190;BME280;22232;50.914;13.858;2023-04-09T01:43:42;98703.59;;;1.84;100.00
36190;BME280;22232;50.914;13.858;2023-04-09T01:46:11;98709.00;;;1.82;100.00
36190;BME280;22232;50.914;13.858;2023-04-09T01:48:39;98710.81;;;1.82;100.00
36190;BME280;22232;50.914;13.858;2023-04-09T01:51:08;98711.63;;;1.82;100.00
36190;BME280;22232;50.914;13.858;2023-04-09T01:53:35;98707.88;;;1.85;100.00
36190;BME280;22232;50.914;13.858;2023-04-09T01:56:03;98706.53;;;1.81;100.00
36190;BME280;22232;50.914;13.858;2023-04-09T01:58:32;98707.66;;;1.78;100.00
36190;BME280;22232;50.914;13.858;2023-04-09T02:01:11;98702.09;;;1.81;100.00
36190;BME280;22232;50.914;13.858;2023-04-09T02:03:50;98701.78;;;1.84;100.00
36190;BME280;22232;50.914;13.858;2023-04-09T02:06:45;98703.44;;;1.86;100.00
36190;BME280;22232;50.914;13.858;2023-04-09T02:09:16;98714.50;;;1.89;100.00
36190;BME280;22232;50.914;13.858;2023-04-09T02:11:47;98717.47;;;1.94;100.00
36190;BME280;22232;50.914;13.858;2023-04-09T02:14:17;98706.94;;;1.94;100.00
36190;BME280;22232;50.914;13.858;2023-04-09T02:16:47;98712.88;;;1.96;100.00
36190;BME280;22232;50.914;13.858;2023-04-09T02:19:15;98710.13;;;1.98;100.00
36190;BME280;22232;50.914;13.858;2023-04-09T02:21:42;98717.84;;;1.99;100.00
36190;BME280;22232;50.914;13.858;2023-04-09T02:24:10;98717.53;;;2.02;100.00
36190;BME280;22232;50.914;13.858;2023-04-09T02:26:38;98715.72;;;2.03;100.00
36190;BME280;22232;50.914;13.858;2023-04-09T02:29:05;98718.22;;;2.04;100.00
36190;BME280;22232;50.914;13.858;2023-04-09T02:31:33;98712.88;;;1.96;100.00
36190;BME280;22232;50.914;13.858;2023-04-09T02:34:00;98719.28;;;1.94;100.00
36190;BME280;22232;50.914;13.858;2023-04-09T02:36:28;98721.09;;;1.93;100.00
36190;BME280;22232;50.914;13.858;2023-04-09T02:38:56;98730.19;;;1.99;100.00
36190;BME280;22232;50.914;13.858;2023-04-09T02:41:23;98727.69;;;1.97;100.00
36190;BME280;22232;50.914;13.858;2023-04-09T02:43:51;98720.91;;;1.95;100.00
36190;BME280;22232;50.914;13.858;2023-04-09T02:46:18;98722.22;;;1.91;100.00
36190;BME280;22232;50.914;13.858;2023-04-09T02:48:47;98724.47;;;1.86;100.00
36190;BME280;22232;50.914;13.858;2023-04-09T02:51:14;98723.84;;;1.92;100.00
36190;BME280;22232;50.914;13.858;2023-04-09T02:53:42;98719.59;;;1.91;100.00
36190;BME280;22232;50.914;13.858;2023-04-09T02:56:09;98721.91;;;1.94;100.00
36190;BME280;22232;50.914;13.858;2023-04-09T02:58:37;98719.16;;;1.95;100.00
36190;BME280;22232;50.914;13.858;2023-04-09T03:01:04;98712.75;;;1.98;100.00
36190;BME280;22232;50.914;13.858;2023-04-09T03:03:32;98712.88;;;1.96;100.00
36190;BME280;22232;50.914;13.858;2023-04-09T03:06:00;98712.06;;;1.96;100.00
36190;BME280;22232;50.914;13.858;2023-04-09T03:08:27;98707.13;;;1.93;100.00
36190;BME280;22232;50.914;13.858;2023-04-09T03:10:55;98703.81;;;1.91;100.00
36190;BME280;22232;50.914;13.858;2023-04-09T03:13:22;98709.22;;;1.89;100.00
36190;BME280;22232;50.914;13.858;2023-04-09T03:15:51;98703.44;;;1.86;100.00
36190;BME280;22232;50.914;13.858;2023-04-09T03:18:19;98713.00;;;1.87;100.00
36190;BME280;22232;50.914;13.858;2023-04-09T03:20:47;98712.16;;;1.86;100.00
36190;BME280;22232;50.914;13.858;2023-04-09T03:23:15;98712.31;;;1.84;100.00
36190;BME280;22232;50.914;13.858;2023-04-09T03:25:45;98712.16;;;1.86;100.00
36190;BME280;22232;50.914;13.858;2023-04-09T03:28:16;98712.00;;;1.88;100.00
36190;BME280;22232;50.914;13.858;2023-04-09T03:30:50;98720.72;;;1.88;100.00
36190;BME280;22232;50.914;13.858;2023-04-09T03:33:18;98713.13;;;1.85;100.00
36190;BME280;22232;50.914;13.858;2023-04-09T03:35:52;98713.63;;;1.89;100.00
36190;BME280;22232;50.914;13.858;2023-04-09T03:38:40;98713.81;;;1.87;100.00
36190;BME280;22232;50.914;13.858;2023-04-09T03:41:20;98719.22;;;1.86;100.00
36190;BME280;22232;50.914;13.858;2023-04-09T03:43:48;98716.28;;;1.89;100.00
36190;BME280;22232;50.914;13.858;2023-04-09T03:46:20;98717.78;;;1.91;100.00
36190;BME280;22232;50.914;13.858;2023-04-09T03:48:48;98710.41;;;1.95;100.00
36190;BME280;22232;50.914;13.858;2023-04-09T03:51:16;98716.72;;;2.02;100.00
36190;BME280;22232;50.914;13.858;2023-04-09T03:53:50;98713.78;;;2.05;100.00
36190;BME280;22232;50.914;13.858;2023-04-09T03:56:18;98716.09;;;2.08;100.00
36190;BME280;22232;50.914;13.858;2023-04-09T03:58:45;98719.72;;;2.07;100.00
36190;BME280;22232;50.914;13.858;2023-04-09T04:01:15;98726.13;;;2.04;100.00
36190;BME280;22232;50.914;13.858;2023-04-09T04:03:52;98715.59;;;2.04;100.00
36190;BME280;22232;50.914;13.858;2023-04-09T04:06:27;98717.75;;;2.09;100.00
36190;BME280;22232;50.914;13.858;2023-04-09T04:09:13;98711.53;;;2.10;100.00
36190;BME280;22232;50.914;13.858;2023-04-09T04:11:53;98712.34;;;2.11;100.00
36190;BME280;22232;50.914;13.858;2023-04-09T04:14:25;98723.53;;;2.13;100.00
36190;BME280;22232;50.914;13.858;2023-04-09T04:17:00;98722.69;;;2.12;100.00
36190;BME280;22232;50.914;13.858;2023-04-09T04:19:29;98712.69;;;2.16;100.00
36190;BME280;22232;50.914;13.858;2023-04-09T04:21:57;98718.50;;;2.19;100.00
36190;BME280;22232;50.914;13.858;2023-04-09T04:24:25;98713.72;;;2.23;100.00
36190;BME280;22232;50.914;13.858;2023-04-09T04:26:53;98713.88;;;2.21;100.00
36190;BME280;22232;50.914;13.858;2023-04-09T04:29:23;98723.22;;;2.16;100.00
36190;BME280;22232;50.914;13.858;2023-04-09T04:31:56;98722.69;;;2.12;100.00
36190;BME280;22232;50.914;13.858;2023-04-09T04:34:27;98718.25;;;2.13;100.00
36190;BME280;22232;50.914;13.858;2023-04-09T04:37:15;98724.06;;;2.16;100.00
36190;BME280;22232;50.914;13.858;2023-04-09T04:39:43;98723.88;;;2.18;100.00
36190;BME280;22232;50.914;13.858;2023-04-09T04:42:14;98725.41;;;2.20;100.00
36190;BME280;22232;50.914;13.858;2023-04-09T04:44:44;98725.16;;;2.32;100.00
36190;BME280;22232;50.914;13.858;2023-04-09T04:47:25;98729.25;;;2.34;100.00
36190;BME280;22232;50.914;13.858;2023-04-09T04:49:53;98735.06;;;2.38;100.00
36190;BME280;22232;50.914;13.858;2023-04-09T04:52:21;98728.31;;;2.43;100.00
36190;BME280;22232;50.914;13.858;2023-04-09T04:54:51;98727.34;;;2.44;100.00
36190;BME280;22232;50.914;13.858;2023-04-09T04:57:22;98739.59;;;2.53;100.00
36190;BME280;22232;50.914;13.858;2023-04-09T04:59:50;98732.56;;;2.62;100.00
36190;BME280;22232;50.914;13.858;2023-04-09T05:02:18;98736.81;;;2.63;100.00
36190;BME280;22232;50.914;13.858;2023-04-09T05:05:12;98736.38;;;2.68;100.00
36190;BME280;22232;50.914;13.858;2023-04-09T05:07:46;98733.88;;;2.66;100.00
36190;BME280;22232;50.914;13.858;2023-04-09T05:10:14;98736.25;;;2.78;100.00
36190;BME280;22232;50.914;13.858;2023-04-09T05:12:43;98740.19;;;2.82;100.00
36190;BME280;22232;50.914;13.858;2023-04-09T05:15:13;98739.44;;;2.89;100.00
36190;BME280;22232;50.914;13.858;2023-04-09T05:17:44;98744.38;;;3.01;100.00
36190;BME280;22232;50.914;13.858;2023-04-09T05:20:13;98744.44;;;3.09;100.00
36190;BME280;22232;50.914;13.858;2023-04-09T05:22:48;98740.97;;;3.16;100.00
36190;BME280;22232;50.914;13.858;2023-04-09T05:25:16;98747.91;;;3.26;100.00
36190;BME280;22232;50.914;13.858;2023-04-09T05:27:44;98743.34;;;3.36;100.00
36190;BME280;22232;50.914;13.858;2023-04-09T05:30:12;98745.38;;;3.50;100.00
36190;BME280;22232;50.914;13.858;2023-04-09T05:32:41;98750.81;;;3.73;100.00
36190;BME280;22232;50.914;13.858;2023-04-09T05:35:08;98753.97;;;3.93;100.00
36190;BME280;22232;50.914;13.858;2023-04-09T05:37:39;98752.81;;;4.04;100.00
36190;BME280;22232;50.914;13.858;2023-04-09T05:40:07;98748.00;;;4.24;100.00
36190;BME280;22232;50.914;13.858;2023-04-09T05:42:36;98744.66;;;4.38;100.00
36190;BME280;22232;50.914;13.858;2023-04-09T05:45:22;98744.31;;;4.49;100.00
36190;BME280;22232;50.914;13.858;2023-04-09T05:47:52;98741.00;;;4.55;100.00
36190;BME280;22232;50.914;13.858;2023-04-09T05:50:22;98735.88;;;4.62;100.00
36190;BME280;22232;50.914;13.858;2023-04-09T05:52:52;98735.97;;;5.24;100.00
36190;BME280;22232;50.914;13.858;2023-04-09T05:55:22;98731.81;;;6.37;100.00
36190;BME280;22232;50.914;13.858;2023-04-09T05:57:54;98727.66;;;7.59;100.00
36190;BME280;22232;50.914;13.858;2023-04-09T06:00:22;98719.38;;;8.40;100.00
36190;BME280;22232;50.914;13.858;2023-04-09T06:02:50;98719.00;;;9.33;100.00
36190;BME280;22232;50.914;13.858;2023-04-09T06:05:17;98722.81;;;9.85;100.00
36190;BME280;22232;50.914;13.858;2023-04-09T06:07:46;98724.69;;;10.11;100.00
36190;BME280;22232;50.914;13.858;2023-04-09T06:10:14;98725.31;;;10.20;100.00
36190;BME280;22232;50.914;13.858;2023-04-09T06:12:42;98721.38;;;10.16;100.00
36190;BME280;22232;50.914;13.858;2023-04-09T06:15:10;98719.13;;;9.99;100.00
36190;BME280;22232;50.914;13.858;2023-04-09T06:17:37;98719.53;;;10.09;100.00
36190;BME280;22232;50.914;13.858;2023-04-09T06:20:05;98721.19;;;10.57;100.00
36190;BME280;22232;50.914;13.858;2023-04-09T06:22:33;98712.72;;;10.87;100.00
36190;BME280;22232;50.914;13.858;2023-04-09T06:25:00;98718.97;;;11.12;100.00
36190;BME280;22232;50.914;13.858;2023-04-09T06:27:28;98730.06;;;11.54;100.00
36190;BME280;22232;50.914;13.858;2023-04-09T06:29:56;98730.59;;;11.69;100.00
36190;BME280;22232;50.914;13.858;2023-04-09T06:32:23;98742.56;;;11.60;100.00
36190;BME280;22232;50.914;13.858;2023-04-09T06:34:51;98739.38;;;11.77;100.00
36190;BME280;22232;50.914;13.858;2023-04-09T06:37:18;98730.38;;;11.33;100.00
36190;BME280;22232;50.914;13.858;2023-04-09T06:39:46;98723.72;;;11.03;100.00
36190;BME280;22232;50.914;13.858;2023-04-09T06:42:27;98722.22;;;11.21;100.00
36190;BME280;22232;50.914;13.858;2023-04-09T06:45:09;98725.34;;;11.11;100.00
36190;BME280;22232;50.914;13.858;2023-04-09T06:47:37;98726.00;;;11.45;100.00
36190;BME280;22232;50.914;13.858;2023-04-09T06:50:04;98722.25;;;11.53;100.00
36190;BME280;22232;50.914;13.858;2023-04-09T06:52:32;98726.75;;;11.97;100.00
36190;BME280;22232;50.914;13.858;2023-04-09T06:55:00;98733.84;;;12.35;99.40
36190;BME280;22232;50.914;13.858;2023-04-09T06:57:27;98731.53;;;12.13;100.00
36190;BME280;22232;50.914;13.858;2023-04-09T06:59:55;98727.72;;;12.71;100.00
36190;BME280;22232;50.914;13.858;2023-04-09T07:02:22;98726.47;;;12.92;99.47
36190;BME280;22232;50.914;13.858;2023-04-09T07:04:50;98724.91;;;13.40;95.32
36190;BME280;22232;50.914;13.858;2023-04-09T07:07:18;98726.38;;;13.17;97.55
36190;BME280;22232;50.914;13.858;2023-04-09T07:09:47;98724.38;;;13.49;96.44
36190;BME280;22232;50.914;13.858;2023-04-09T07:12:28;98727.31;;;13.60;93.25
36190;BME280;22232;50.914;13.858;2023-04-09T07:15:00;98728.13;;;13.60;96.25
36190;BME280;22232;50.914;13.858;2023-04-09T07:17:29;98735.09;;;13.49;90.43
36190;BME280;22232;50.914;13.858;2023-04-09T07:19:57;98731.09;;;13.40;97.63
36190;BME280;22232;50.914;13.858;2023-04-09T07:22:27;98738.72;;;13.25;98.95
36190;BME280;22232;50.914;13.858;2023-04-09T07:24:54;98744.84;;;12.20;100.00
36190;BME280;22232;50.914;13.858;2023-04-09T07:27:23;98752.47;;;11.91;100.00
36190;BME280;22232;50.914;13.858;2023-04-09T07:29:54;98751.06;;;12.21;100.00
36190;BME280;22232;50.914;13.858;2023-04-09T07:32:23;98753.69;;;11.96;100.00
36190;BME280;22232;50.914;13.858;2023-04-09T07:34:51;98754.28;;;11.59;100.00
36190;BME280;22232;50.914;13.858;2023-04-09T07:37:19;98750.94;;;11.32;100.00
36190;BME280;22232;50.914;13.858;2023-04-09T07:39:48;98749.00;;;11.46;100.00
36190;BME280;22232;50.914;13.858;2023-04-09T07:42:16;98750.31;;;11.68;100.00
36190;BME280;22232;50.914;13.858;2023-04-09T07:44:43;98752.59;;;10.28;100.00
36190;BME280;22232;50.914;13.858;2023-04-09T07:47:11;98745.16;;;9.77;100.00
36190;BME280;22232;50.914;13.858;2023-04-09T07:49:39;98748.34;;;9.46;100.00
36190;BME280;22232;50.914;13.858;2023-04-09T07:52:06;98757.34;;;9.38;100.00
36190;BME280;22232;50.914;13.858;2023-04-09T07:54:34;98751.38;;;9.36;100.00
36190;BME280;22232;50.914;13.858;2023-04-09T07:57:02;98745.38;;;9.21;100.00
36190;BME280;22232;50.914;13.858;2023-04-09T07:59:29;98745.16;;;9.77;100.00
36190;BME280;22232;50.914;13.858;2023-04-09T08:01:58;98749.72;;;10.50;100.00
36190;BME280;22232;50.914;13.858;2023-04-09T08:04:26;98750.34;;;11.23;100.00
36190;BME280;22232;50.914;13.858;2023-04-09T08:06:54;98746.38;;;10.88;100.00
36190;BME280;22232;50.914;13.858;2023-04-09T08:09:21;98749.41;;;10.98;100.00
36190;BME280;22232;50.914;13.858;2023-04-09T08:11:49;98745.25;;;11.15;100.00
36190;BME280;22232;50.914;13.858;2023-04-09T08:14:17;98745.38;;;11.34;100.00
36190;BME280;22232;50.914;13.858;2023-04-09T08:16:46;98738.91;;;11.10;95.16
36190;BME280;22232;50.914;13.858;2023-04-09T08:19:17;98749.47;;;10.65;100.00
36190;BME280;22232;50.914;13.858;2023-04-09T08:21:46;98742.88;;;10.87;100.00
36190;BME280;22232;50.914;13.858;2023-04-09T08:24:15;98749.50;;;10.71;100.00
36190;BME280;22232;50.914;13.858;2023-04-09T08:26:43;98759.97;;;10.40;100.00
36190;BME280;22232;50.914;13.858;2023-04-09T08:29:11;98757.06;;;10.08;100.00
36190;BME280;22232;50.914;13.858;2023-04-09T08:31:40;98762.59;;;10.00;100.00
36190;BME280;22232;50.914;13.858;2023-04-09T08:34:08;98764.44;;;9.86;100.00
36190;BME280;22232;50.914;13.858;2023-04-09T08:36:35;98768.03;;;9.52;100.00
36190;BME280;22232;50.914;13.858;2023-04-09T08:39:03;98769.72;;;9.73;100.00
36190;BME280;22232;50.914;13.858;2023-04-09T08:41:31;98771.53;;;9.59;100.00
36190;BME280;22232;50.914;13.858;2023-04-09T08:43:58;98778.06;;;9.50;100.00
36190;BME280;22232;50.914;13.858;2023-04-09T08:46:27;98772.16;;;9.61;100.00
36190;BME280;22232;50.914;13.858;2023-04-09T08:48:54;98776.19;;;10.45;100.00
36190;BME280;22232;50.914;13.858;2023-04-09T08:51:23;98772.09;;;10.36;100.00
36190;BME280;22232;50.914;13.858;2023-04-09T08:53:55;98772.69;;;10.57;100.00
36190;BME280;22232;50.914;13.858;2023-04-09T08:56:23;98781.53;;;10.38;100.00
36190;BME280;22232;50.914;13.858;2023-04-09T08:58:51;98772.84;;;10.16;100.00
36190;BME280;22232;50.914;13.858;2023-04-09T09:01:26;98782.53;;;10.44;100.00
36190;BME280;22232;50.914;13.858;2023-04-09T09:04:02;98770.50;;;11.13;100.00
36190;BME280;22232;50.914;13.858;2023-04-09T09:06:35;98772.28;;;11.39;100.00
36190;BME280;22232;50.914;13.858;2023-04-09T09:09:14;98779.34;;;11.20;100.00
36190;BME280;22232;50.914;13.858;2023-04-09T09:11:48;98779.03;;;10.70;100.00
36190;BME280;22232;50.914;13.858;2023-04-09T09:14:18;98779.84;;;10.64;100.00
36190;BME280;22232;50.914;13.858;2023-04-09T09:22:02;98781.72;;;10.30;100.00
36190;BME280;22232;50.914;13.858;2023-04-09T09:24:30;98770.03;;;10.51;100.00
36190;BME280;22232;50.914;13.858;2023-04-09T09:27:01;98769.56;;;10.74;100.00
36190;BME280;22232;50.914;13.858;2023-04-09T09:29:29;98769.78;;;11.44;100.00
36190;BME280;22232;50.914;13.858;2023-04-09T09:31:59;98777.78;;;11.51;100.00
36190;BME280;22232;50.914;13.858;2023-04-09T09:34:27;98763.53;;;11.12;100.00
36190;BME280;22232;50.914;13.858;2023-04-09T09:36:54;98765.84;;;10.95;100.00
36190;BME280;22232;50.914;13.858;2023-04-09T09:39:22;98771.66;;;10.45;100.00
36190;BME280;22232;50.914;13.858;2023-04-09T09:42:06;98767.94;;;10.00;100.00
36190;BME280;22232;50.914;13.858;2023-04-09T09:44:33;98762.53;;;9.60;100.00
36190;BME280;22232;50.914;13.858;2023-04-09T09:47:02;98763.22;;;9.27;100.00
36190;BME280;22232;50.914;13.858;2023-04-09T09:49:31;98759.88;;;9.12;100.00
36190;BME280;22232;50.914;13.858;2023-04-09T09:51:59;98766.94;;;9.39;100.00
36190;BME280;22232;50.914;13.858;2023-04-09T09:54:33;98762.50;;;9.47;100.00
36190;BME280;22232;50.914;13.858;2023-04-09T09:57:06;98757.78;;;9.55;100.00
36190;BME280;22232;50.914;13.858;2023-04-09T09:59:58;98762.81;;;9.24;100.00
36190;BME280;22232;50.914;13.858;2023-04-09T10:02:27;98758.00;;;9.06;100.00
36190;BME280;22232;50.914;13.858;2023-04-09T10:04:59;98758.03;;;9.12;100.00
36190;BME280;22232;50.914;13.858;2023-04-09T10:07:28;98753.47;;;9.48;100.00
36190;BME280;22232;50.914;13.858;2023-04-09T10:09:57;98750.53;;;10.17;100.00
36190;BME280;22232;50.914;13.858;2023-04-09T10:12:25;98747.25;;;10.48;100.00
36190;BME280;22232;50.914;13.858;2023-04-09T10:14:54;98754.44;;;10.41;100.00
36190;BME280;22232;50.914;13.858;2023-04-09T10:17:24;98749.28;;;10.46;100.00
36190;BME280;22232;50.914;13.858;2023-04-09T10:20:11;98734.88;;;10.87;100.00
36190;BME280;22232;50.914;13.858;2023-04-09T10:22:42;98738.59;;;10.73;100.00
36190;BME280;22232;50.914;13.858;2023-04-09T10:25:11;98735.72;;;10.81;100.00
36190;BME280;22232;50.914;13.858;2023-04-09T10:27:39;98734.94;;;10.14;100.00
36190;BME280;22232;50.914;13.858;2023-04-09T10:30:07;98735.72;;;9.95;100.00
36190;BME280;22232;50.914;13.858;2023-04-09T10:32:36;98737.75;;;9.66;100.00
36190;BME280;22232;50.914;13.858;2023-04-09T10:35:05;98735.88;;;9.60;100.00
36190;BME280;22232;50.914;13.858;2023-04-09T10:37:34;98733.22;;;9.67;100.00
36190;BME280;22232;50.914;13.858;2023-04-09T10:40:02;98730.81;;;9.85;100.00
36190;BME280;22232;50.914;13.858;2023-04-09T10:42:35;98721.00;;;9.92;100.00
36190;BME280;22232;50.914;13.858;2023-04-09T10:45:10;98726.50;;;9.84;100.00
36190;BME280;22232;50.914;13.858;2023-04-09T10:47:40;98727.50;;;9.63;100.00
36190;BME280;22232;50.914;13.858;2023-04-09T10:50:24;98727.50;;;9.76;100.00
36190;BME280;22232;50.914;13.858;2023-04-09T10:52:55;98728.13;;;9.72;100.00
36190;BME280;22232;50.914;13.858;2023-04-09T10:55:40;98726.69;;;9.76;100.00
36190;BME280;22232;50.914;13.858;2023-04-09T10:58:10;98732.06;;;10.02;100.00
36190;BME280;22232;50.914;13.858;2023-04-09T11:00:44;98726.09;;;10.07;100.00
36190;BME280;22232;50.914;13.858;2023-04-09T11:03:25;98728.94;;;9.85;100.00
36190;BME280;22232;50.914;13.858;2023-04-09T11:06:03;98730.56;;;9.60;100.00
36190;BME280;22232;50.914;13.858;2023-04-09T11:08:37;98727.53;;;9.90;100.00
36190;BME280;22232;50.914;13.858;2023-04-09T11:11:05;98719.16;;;10.26;100.00
36190;BME280;22232;50.914;13.858;2023-04-09T11:13:32;98726.53;;;10.10;100.00
36190;BME280;22232;50.914;13.858;2023-04-09T11:16:00;98726.94;;;10.07;100.00
36190;BME280;22232;50.914;13.858;2023-04-09T11:18:33;98723.03;;;10.03;100.00
36190;BME280;22232;50.914;13.858;2023-04-09T11:21:02;98729.00;;;10.39;100.00
36190;BME280;22232;50.914;13.858;2023-04-09T11:23:31;98721.19;;;10.44;100.00
36190;BME280;22232;50.914;13.858;2023-04-09T11:25:59;98728.97;;;10.72;100.00
36190;BME280;22232;50.914;13.858;2023-04-09T11:28:28;98719.38;;;10.44;100.00
36190;BME280;22232;50.914;13.858;2023-04-09T11:30:55;98724.88;;;10.43;100.00
36190;BME280;22232;50.914;13.858;2023-04-09T11:33:30;98718.94;;;11.19;100.00
36190;BME280;22232;50.914;13.858;2023-04-09T11:35:58;98720.06;;;11.43;100.00
36190;BME280;22232;50.914;13.858;2023-04-09T11:38:25;98716.00;;;11.72;100.00
36190;BME280;22232;50.914;13.858;2023-04-09T11:40:56;98720.69;;;11.77;100.00
36190;BME280;22232;50.914;13.858;2023-04-09T11:43:24;98715.38;;;11.70;100.00
36190;BME280;22232;50.914;13.858;2023-04-09T11:45:52;98705.38;;;12.40;100.00
36190;BME280;22232;50.914;13.858;2023-04-09T11:48:20;98706.63;;;13.00;100.00
36190;BME280;22232;50.914;13.858;2023-04-09T11:50:50;98695.00;;;13.43;100.00
36190;BME280;22232;50.914;13.858;2023-04-09T11:53:20;98696.31;;;13.52;100.00
36190;BME280;22232;50.914;13.858;2023-04-09T11:55:51;98701.38;;;12.50;100.00
36190;BME280;22232;50.914;13.858;2023-04-09T11:58:26;98692.56;;;12.49;100.00
36190;BME280;22232;50.914;13.858;2023-04-09T12:00:54;98708.72;;;11.86;100.00
36190;BME280;22232;50.914;13.858;2023-04-09T12:03:31;98709.50;;;11.23;100.00
36190;BME280;22232;50.914;13.858;2023-04-09T12:06:01;98708.84;;;10.69;100.00
36190;BME280;22232;50.914;13.858;2023-04-09T12:08:29;98706.31;;;10.94;100.00
36190;BME280;22232;50.914;13.858;2023-04-09T12:11:07;98711.69;;;11.33;100.00
36190;BME280;22232;50.914;13.858;2023-04-09T12:13:35;98706.25;;;11.84;100.00
36190;BME280;22232;50.914;13.858;2023-04-09T12:16:03;98715.72;;;11.87;99.71
36190;BME280;22232;50.914;13.858;2023-04-09T12:18:35;98715.38;;;12.02;99.46
36190;BME280;22232;50.914;13.858;2023-04-09T12:21:04;98711.75;;;11.96;90.67
36190;BME280;22232;50.914;13.858;2023-04-09T12:23:32;98718.59;;;12.35;96.60
36190;BME280;22232;50.914;13.858;2023-04-09T12:25:59;98714.19;;;12.23;100.00
36190;BME280;22232;50.914;13.858;2023-04-09T12:28:28;98710.31;;;12.44;99.92
36190;BME280;22232;50.914;13.858;2023-04-09T12:30:56;98706.84;;;12.18;99.28
36190;BME280;22232;50.914;13.858;2023-04-09T12:33:25;98710.16;;;12.13;96.88
36190;BME280;22232;50.914;13.858;2023-04-09T12:35:53;98709.22;;;12.01;100.00
36190;BME280;22232;50.914;13.858;2023-04-09T12:38:22;98720.94;;;11.68;100.00
36190;BME280;22232;50.914;13.858;2023-04-09T12:40:49;98715.75;;;11.74;100.00
36190;BME280;22232;50.914;13.858;2023-04-09T12:43:17;98710.59;;;12.10;97.18
36190;BME280;22232;50.914;13.858;2023-04-09T12:45:44;98711.66;;;11.71;94.91
36190;BME280;22232;50.914;13.858;2023-04-09T12:48:13;98709.13;;;11.83;100.00
36190;BME280;22232;50.914;13.858;2023-04-09T12:50:40;98705.97;;;11.61;94.90
36190;BME280;22232;50.914;13.858;2023-04-09T12:53:08;98701.50;;;11.93;100.00
36190;BME280;22232;50.914;13.858;2023-04-09T12:55:35;98698.41;;;11.58;100.00
36190;BME280;22232;50.914;13.858;2023-04-09T12:58:03;98691.56;;;11.30;98.83
36190;BME280;22232;50.914;13.858;2023-04-09T13:00:30;98687.34;;;11.86;95.93
36190;BME280;22232;50.914;13.858;2023-04-09T13:02:59;98682.44;;;11.76;93.14
36190;BME280;22232;50.914;13.858;2023-04-09T13:05:27;98680.25;;;11.98;99.82
36190;BME280;22232;50.914;13.858;2023-04-09T13:07:57;98682.03;;;11.47;98.42
36190;BME280;22232;50.914;13.858;2023-04-09T13:10:25;98685.00;;;11.33;100.00
36190;BME280;22232;50.914;13.858;2023-04-09T13:12:52;98681.19;;;11.47;100.00
36190;BME280;22232;50.914;13.858;2023-04-09T13:15:20;98677.31;;;11.75;100.00